Time;durP1;ratioP1;P1;durP2;ratioP2;P2;SDS_P1;SDS_P2;PMS_P1;PMS_P2;Temp;Humidity;BMP_temperature;BMP_pressure;BME280_temperature;BME280_humidity;BME280_pressure;Samples;Min_cycle;Max_cycle;Signal;HPM_P1;HPM_P2
2021/08/01 00:00:20;;;;;;;4.22;3.38;;;14.90;99.90;;;;;;4995638;28;20043;-96
2021/08/01 00:02:47;;;;;;;4.28;3.00;;;14.90;99.90;;;;;;4972792;28;20046;-96
2021/08/01 00:05:13;;;;;;;4.22;3.47;;;14.90;99.90;;;;;;4970106;28;20521;-95
2021/08/01 00:07:39;;;;;;;3.95;2.95;;;14.90;99.90;;;;;;4986891;28;20034;-95
2021/08/01 00:10:08;;;;;;;3.63;3.17;;;14.90;99.90;;;;;;4969883;28;20019;-96
2021/08/01 00:12:35;;;;;;;3.10;2.80;;;14.90;99.90;;;;;;4969361;28;20027;-96
2021/08/01 00:15:02;;;;;;;3.53;3.10;;;14.90;99.90;;;;;;4964946;28;20031;-95
2021/08/01 00:17:28;;;;;;;3.63;3.33;;;14.90;99.90;;;;;;4977189;28;20035;-95
2021/08/01 00:19:54;;;;;;;6.18;3.42;;;14.90;99.90;;;;;;4980165;28;20033;-96
2021/08/01 00:22:20;;;;;;;3.67;3.10;;;14.90;99.90;;;;;;4981093;28;20023;-95
2021/08/01 00:24:48;;;;;;;4.40;3.45;;;14.90;99.90;;;;;;4997401;28;20090;-96
2021/08/01 00:27:17;;;;;;;5.63;3.60;;;14.90;99.90;;;;;;4981409;28;20046;-96
2021/08/01 00:29:43;;;;;;;5.70;3.75;;;14.90;99.90;;;;;;4981939;28;20025;-96
2021/08/01 00:32:09;;;;;;;4.57;3.85;;;14.80;99.90;;;;;;4996946;28;20031;-96
2021/08/01 00:34:35;;;;;;;7.07;4.28;;;14.80;99.90;;;;;;4975321;28;20035;-95
2021/08/01 00:37:01;;;;;;;4.55;3.83;;;14.80;99.90;;;;;;4980161;28;20052;-96
2021/08/01 00:42:02;;;;;;;5.03;3.15;;;14.80;99.90;;;;;;6003423;23;20044;-95
2021/08/01 02:05:50;;;;;;;8.07;5.28;;;14.40;99.90;;;;;;5033253;23;20150;-96
2021/08/01 02:08:16;;;;;;;7.50;5.13;;;14.40;99.90;;;;;;4977442;28;20392;-96
2021/08/01 02:10:59;;;;;;;10.70;5.43;;;14.40;99.90;;;;;;4995768;28;20042;-96
2021/08/01 02:13:34;;;;;;;11.45;6.10;;;14.40;99.90;;;;;;4982359;28;20034;-96
2021/08/01 02:16:01;;;;;;;14.35;6.05;;;14.40;99.90;;;;;;4979886;28;20022;-95
2021/08/01 02:18:49;;;;;;;8.68;6.07;;;14.40;99.90;;;;;;4998598;28;20034;-96
2021/08/01 02:56:30;;;;;;;16.17;6.93;;;14.00;99.90;;;;;;5413986;23;20276;-96
2021/08/01 02:58:58;;;;;;;14.20;6.30;;;14.00;99.90;;;;;;4977219;28;20038;-96
2021/08/01 03:01:35;;;;;;;12.20;6.10;;;13.90;99.90;;;;;;4992648;28;20317;-96
2021/08/01 03:04:02;;;;;;;16.63;6.60;;;13.90;99.90;;;;;;4991836;28;20027;-96
2021/08/01 03:06:32;;;;;;;15.60;6.72;;;13.90;99.90;;;;;;4986701;28;20101;-96
2021/08/01 03:09:07;;;;;;;11.43;6.25;;;13.90;99.90;;;;;;4975323;28;20067;-96
2021/08/01 03:11:34;;;;;;;10.32;5.70;;;13.80;99.90;;;;;;4968990;28;20022;-96
2021/08/01 03:14:01;;;;;;;8.30;5.38;;;13.80;99.90;;;;;;4988852;28;20492;-96
2021/08/01 03:16:27;;;;;;;14.23;6.20;;;13.70;99.90;;;;;;4984355;28;20102;-95
2021/08/01 03:18:54;;;;;;;13.43;6.45;;;13.70;99.90;;;;;;4960567;28;20037;-95
2021/08/01 03:21:19;;;;;;;12.23;6.40;;;13.70;99.90;;;;;;4982487;28;20035;-96
2021/08/01 03:23:45;;;;;;;12.40;6.00;;;13.70;99.90;;;;;;4985042;28;20019;-96
2021/08/01 03:26:11;;;;;;;9.63;5.38;;;13.70;99.90;;;;;;4968667;28;20062;-96
2021/08/01 03:28:37;;;;;;;11.95;6.45;;;13.70;99.90;;;;;;4972365;28;20110;-96
2021/08/01 03:31:04;;;;;;;12.77;5.55;;;13.60;99.90;;;;;;4995569;28;20292;-96
2021/08/01 03:33:30;;;;;;;14.07;6.47;;;13.60;99.90;;;;;;4998158;28;20035;-96
2021/08/01 03:35:56;;;;;;;10.32;5.28;;;13.60;99.90;;;;;;4981467;28;20026;-96
2021/08/01 03:38:21;;;;;;;9.95;5.57;;;13.60;99.90;;;;;;4976939;28;20054;-96
2021/08/01 03:40:50;;;;;;;13.60;5.80;;;13.60;99.90;;;;;;4973351;28;20031;-96
2021/08/01 03:43:16;;;;;;;9.88;5.43;;;13.50;99.90;;;;;;4988881;28;20093;-96
2021/08/01 03:45:42;;;;;;;13.07;6.28;;;13.50;99.90;;;;;;4968349;28;20116;-96
2021/08/01 03:48:08;;;;;;;9.48;5.47;;;13.50;99.90;;;;;;4972459;28;20022;-96
2021/08/01 03:50:35;;;;;;;13.05;5.88;;;13.50;99.90;;;;;;4989647;28;20039;-96
2021/08/01 03:53:01;;;;;;;9.30;5.07;;;13.40;99.90;;;;;;4970718;28;20034;-96
2021/08/01 03:55:27;;;;;;;12.07;5.70;;;13.40;99.90;;;;;;4966318;28;20031;-96
2021/08/01 03:57:52;;;;;;;10.05;5.55;;;13.40;99.90;;;;;;4977286;28;20130;-96
2021/08/01 04:00:18;;;;;;;10.77;5.78;;;13.40;99.90;;;;;;4976985;28;20039;-95
2021/08/01 04:02:44;;;;;;;11.38;5.03;;;13.40;99.90;;;;;;4961431;28;20035;-95
2021/08/01 04:05:10;;;;;;;9.52;4.90;;;13.40;99.90;;;;;;4965121;28;20074;-95
2021/08/01 04:07:36;;;;;;;8.02;5.28;;;13.40;99.90;;;;;;4983421;28;20409;-95
2021/08/01 04:10:02;;;;;;;9.10;4.90;;;13.40;99.90;;;;;;4959151;28;20077;-95
2021/08/01 04:12:28;;;;;;;9.90;4.95;;;13.30;99.90;;;;;;4958723;28;20034;-95
2021/08/01 04:14:54;;;;;;;10.90;5.55;;;13.30;99.90;;;;;;4958719;28;20389;-95
2021/08/01 04:17:20;;;;;;;11.55;4.70;;;13.30;99.90;;;;;;4959176;28;20039;-96
2021/08/01 04:19:47;;;;;;;8.60;5.05;;;13.30;99.90;;;;;;4959765;28;20066;-96
2021/08/01 04:22:14;;;;;;;8.48;4.55;;;13.30;99.90;;;;;;4961029;28;20030;-96
2021/08/01 04:24:41;;;;;;;10.35;4.45;;;13.30;99.90;;;;;;4965602;28;20026;-96
2021/08/01 04:27:07;;;;;;;8.68;5.03;;;13.30;99.90;;;;;;4983927;28;20051;-96
2021/08/01 04:29:33;;;;;;;7.88;3.92;;;13.20;99.90;;;;;;4983758;28;20042;-96
2021/08/01 04:31:59;;;;;;;7.57;4.30;;;13.20;99.90;;;;;;4964430;28;20543;-96
2021/08/01 04:34:25;;;;;;;8.52;4.00;;;13.20;99.90;;;;;;4968050;28;20063;-96
2021/08/01 04:36:51;;;;;;;6.88;4.28;;;13.20;99.90;;;;;;4963718;28;20027;-96
2021/08/01 04:39:16;;;;;;;6.70;4.50;;;13.20;99.90;;;;;;4979774;28;20042;-96
2021/08/01 04:41:43;;;;;;;10.60;4.38;;;13.10;99.90;;;;;;4963684;28;20138;-96
2021/08/01 04:44:09;;;;;;;8.23;3.97;;;13.10;99.90;;;;;;4965797;28;20102;-96
2021/08/01 04:46:35;;;;;;;12.40;4.00;;;13.10;99.90;;;;;;4991411;28;20106;-96
2021/08/01 04:49:01;;;;;;;6.75;4.28;;;13.10;99.90;;;;;;4971062;28;20437;-96
2021/08/01 04:51:26;;;;;;;7.43;4.47;;;13.10;99.90;;;;;;4995743;28;20050;-96
2021/08/01 04:53:52;;;;;;;8.77;4.05;;;13.10;99.90;;;;;;4980227;28;20035;-96
2021/08/01 04:56:19;;;;;;;10.75;4.53;;;13.10;99.90;;;;;;4997092;28;20054;-96
2021/08/01 04:58:44;;;;;;;13.25;4.50;;;13.10;99.90;;;;;;4988347;28;20480;-96
2021/08/01 05:01:15;;;;;;;8.20;4.28;;;13.10;99.90;;;;;;4974371;28;20050;-96
2021/08/01 05:03:41;;;;;;;8.77;4.50;;;13.10;99.90;;;;;;4979685;28;20034;-96
2021/08/01 05:06:09;;;;;;;8.27;4.72;;;13.10;99.90;;;;;;4995436;28;20041;-96
2021/08/01 05:08:37;;;;;;;8.20;4.15;;;13.10;99.90;;;;;;4974708;28;20037;-96
2021/08/01 05:11:03;;;;;;;9.68;4.50;;;13.20;99.90;;;;;;4974905;28;20031;-95
2021/08/01 05:13:30;;;;;;;11.07;4.82;;;13.10;99.90;;;;;;4972183;28;20027;-96
2021/08/01 05:15:56;;;;;;;10.77;4.95;;;13.20;99.90;;;;;;4973010;28;20062;-96
2021/08/01 05:18:22;;;;;;;8.93;4.43;;;13.20;99.90;;;;;;4957481;28;20046;-96
2021/08/01 05:20:48;;;;;;;8.90;4.45;;;13.20;99.90;;;;;;4956721;28;20039;-96
2021/08/01 05:23:18;;;;;;;7.97;3.60;;;13.20;99.90;;;;;;4989788;28;20039;-96
2021/08/01 05:25:44;;;;;;;13.23;4.38;;;13.30;99.90;;;;;;4982636;28;20030;-96
2021/08/01 05:28:10;;;;;;;7.55;4.63;;;13.30;99.90;;;;;;4984557;28;20091;-96
2021/08/01 05:30:36;;;;;;;16.25;4.45;;;13.30;99.90;;;;;;4968648;28;20038;-96
2021/08/01 05:33:06;;;;;;;7.35;4.10;;;13.30;99.90;;;;;;4984121;28;20022;-96
2021/08/01 05:35:37;;;;;;;9.05;4.22;;;13.40;99.90;;;;;;4966640;28;20034;-96
2021/08/01 05:38:03;;;;;;;12.10;4.80;;;13.40;99.90;;;;;;4980834;28;20480;-96
2021/08/01 05:40:33;;;;;;;5.72;4.00;;;13.40;99.90;;;;;;4979837;28;20042;-96
2021/08/01 05:43:04;;;;;;;7.80;3.63;;;13.40;99.90;;;;;;4981071;28;20094;-96
2021/08/01 05:45:33;;;;;;;8.32;3.85;;;13.40;99.90;;;;;;4996641;28;20059;-96
2021/08/01 05:48:03;;;;;;;7.43;3.92;;;13.50;99.90;;;;;;4994107;28;20019;-96
2021/08/01 05:50:28;;;;;;;7.47;4.03;;;13.40;99.90;;;;;;4979531;28;20050;-96
2021/08/01 05:52:58;;;;;;;9.57;4.25;;;13.50;99.90;;;;;;4980619;28;20050;-96
2021/08/01 05:55:24;;;;;;;6.53;3.90;;;13.50;99.90;;;;;;4976660;28;20042;-96
2021/08/01 05:57:50;;;;;;;10.35;4.50;;;13.50;99.90;;;;;;4989207;28;20065;-96
2021/08/01 06:00:17;;;;;;;7.38;4.00;;;13.40;99.90;;;;;;4997572;28;20031;-96
2021/08/01 06:02:52;;;;;;;12.40;4.22;;;13.40;99.90;;;;;;4990312;28;20066;-96
2021/08/01 06:05:20;;;;;;;8.77;5.13;;;13.40;99.90;;;;;;4976103;28;20038;-96
2021/08/01 06:08:00;;;;;;;9.95;3.83;;;13.40;99.90;;;;;;4997470;28;20094;-96
2021/08/01 06:10:29;;;;;;;8.88;3.97;;;13.30;99.90;;;;;;4996455;28;20065;-96
2021/08/01 06:15:31;;;;;;;10.82;4.43;;;13.40;99.90;;;;;;5916510;23;19909;-94
2021/08/01 06:20:34;;;;;;;9.35;4.05;;;13.30;99.90;;;;;;5897896;23;20038;-96
2021/08/01 06:23:00;;;;;;;7.38;3.83;;;13.30;99.90;;;;;;4995899;28;20087;-96
2021/08/01 06:25:26;;;;;;;7.63;4.03;;;13.40;99.90;;;;;;4994986;28;20026;-96
2021/08/01 07:14:09;;;;;;;5.75;2.80;;;14.60;99.90;;;;;;6105111;23;20354;31
2021/08/01 07:16:45;;;;;;;11.20;3.53;;;14.60;99.90;;;;;;4991309;28;20092;-96
2021/08/01 07:19:12;;;;;;;6.20;3.30;;;14.60;99.90;;;;;;4982543;28;20095;-96
2021/08/01 07:24:13;;;;;;;10.00;3.47;;;14.70;99.90;;;;;;5754865;23;20051;-96
2021/08/01 07:26:39;;;;;;;12.02;4.78;;;14.80;99.90;;;;;;4982847;28;20033;-95
2021/08/01 07:29:04;;;;;;;5.80;3.33;;;14.90;99.90;;;;;;4962567;29;20504;-95
2021/08/01 07:31:35;;;;;;;5.22;3.25;;;15.00;99.90;;;;;;4946757;29;20042;-96
2021/08/01 07:34:01;;;;;;;;;;;15.00;99.90;;;;;;4966739;29;20091;-96
2021/08/01 07:36:28;;;;;;;4.63;3.15;;;15.10;99.90;;;;;;4974745;28;19918;-94
2021/08/01 07:38:54;;;;;;;5.88;2.90;;;15.10;99.90;;;;;;4990682;28;20045;-96
2021/08/01 07:43:55;;;;;;;5.32;3.03;;;15.20;99.90;;;;;;5502672;23;20118;-94
2021/08/01 07:46:21;;;;;;;6.55;3.13;;;15.20;99.90;;;;;;4958776;28;20034;-93
2021/08/01 07:48:46;;;;;;;8.60;3.95;;;15.20;99.90;;;;;;4976491;28;20037;-95
2021/08/01 07:51:15;;;;;;;10.32;3.05;;;15.20;99.90;;;;;;4975391;28;20097;-96
2021/08/01 07:53:40;;;;;;;4.78;2.83;;;15.30;99.90;;;;;;4975770;28;20023;-96
2021/08/01 07:56:06;;;;;;;5.72;2.85;;;15.30;99.90;;;;;;4976001;28;20026;-95
2021/08/01 07:58:32;;;;;;;6.65;2.80;;;15.40;99.90;;;;;;4979814;28;20041;-96
2021/08/01 08:00:58;;;;;;;15.88;4.03;;;15.40;99.90;;;;;;4978398;28;20113;-92
2021/08/01 08:03:24;;;;;;;6.13;3.17;;;15.50;99.90;;;;;;4978627;28;20027;-93
2021/08/01 08:05:51;;;;;;;12.88;3.10;;;15.60;99.90;;;;;;4976836;28;20037;-94
2021/08/01 08:08:17;;;;;;;10.57;2.50;;;15.60;99.90;;;;;;4978167;28;20027;-95
2021/08/01 08:10:43;;;;;;;4.43;2.70;;;15.70;99.90;;;;;;4976541;28;20081;-93
2021/08/01 08:13:09;;;;;;;3.47;2.15;;;15.80;99.90;;;;;;4977371;28;20030;-93
2021/08/01 08:15:36;;;;;;;3.85;2.40;;;15.80;99.90;;;;;;4986899;28;20038;-96
2021/08/01 08:18:05;;;;;;;6.50;2.20;;;15.90;99.90;;;;;;5651493;23;20059;-96
2021/08/01 08:20:31;;;;;;;7.03;2.60;;;16.00;99.90;;;;;;4976780;28;20070;-96
2021/08/01 08:22:56;;;;;;;4.15;2.38;;;16.10;99.90;;;;;;4958329;29;20030;-96
2021/08/01 08:28:04;;;;;;;7.40;2.20;;;16.30;99.90;;;;;;6037052;23;20014;-96
2021/08/01 08:30:30;;;;;;;9.90;2.80;;;16.30;99.90;;;;;;4960807;29;20035;-96
2021/08/01 08:32:58;;;;;;;6.25;3.15;;;16.30;99.90;;;;;;4958518;29;20038;-96
2021/08/01 08:37:54;;;;;;;6.23;2.80;;;16.10;99.90;;;;;;4992248;28;20051;-96
2021/08/01 08:40:23;;;;;;;5.28;2.70;;;16.10;99.90;;;;;;5103288;23;20054;-95
2021/08/01 08:42:50;;;;;;;6.80;2.90;;;16.10;99.90;;;;;;4981933;28;20031;-95
2021/08/01 08:45:16;;;;;;;6.00;3.00;;;16.00;99.90;;;;;;4978570;28;20046;-94
2021/08/01 08:47:49;;;;;;;7.78;3.03;;;16.00;99.90;;;;;;4989641;28;20049;-96
2021/08/01 08:50:21;;;;;;;10.45;3.10;;;16.00;99.90;;;;;;4980498;28;20078;-95
2021/08/01 09:03:52;;;;;;;7.05;3.28;;;16.20;99.90;;;;;;5878027;23;20575;-95
2021/08/01 09:06:18;;;;;;;6.20;3.53;;;16.20;99.90;;;;;;4969621;28;20023;-96
2021/08/01 09:08:45;;;;;;;6.18;2.88;;;16.30;99.90;;;;;;4967595;28;20081;-96
2021/08/01 09:11:10;;;;;;;6.30;3.53;;;16.30;99.90;;;;;;4955505;28;20050;-96
2021/08/01 09:13:48;;;;;;;6.40;3.70;;;16.30;99.90;;;;;;4954080;28;20046;-96
2021/08/01 09:16:15;;;;;;;7.78;3.78;;;16.50;99.90;;;;;;4959587;28;20054;-96
2021/08/01 09:18:42;;;;;;;9.05;3.50;;;16.70;99.90;;;;;;4962207;28;20041;-96
2021/08/01 09:21:08;;;;;;;6.35;3.22;;;16.80;99.90;;;;;;4960197;28;20041;-96
2021/08/01 09:24:06;;;;;;;4.10;3.15;;;16.90;99.90;;;;;;5292560;23;20036;-95
2021/08/01 09:26:46;;;;;;;5.25;3.50;;;17.00;99.90;;;;;;4978425;28;20026;-95
2021/08/01 09:31:43;;;;;;;6.88;3.65;;;17.20;99.90;;;;;;5083862;23;20279;-95
2021/08/01 09:34:26;;;;;;;10.13;3.67;;;17.30;99.90;;;;;;4990208;28;20102;-93
2021/08/01 09:39:28;;;;;;;5.30;3.30;;;17.50;99.90;;;;;;5375932;23;20101;-95
2021/08/01 09:42:00;;;;;;;3.40;3.10;;;17.50;99.90;;;;;;5064791;23;20058;-96
2021/08/01 10:04:28;;;;;;;4.72;1.10;;;17.50;99.90;;;;;;5079488;23;20034;-95
2021/08/01 10:07:13;;;;;;;2.08;1.13;;;17.40;99.90;;;;;;5080984;23;20116;-96
2021/08/01 10:12:22;;;;;;;1.50;1.08;;;17.30;99.50;;;;;;5172698;23;20082;-96
2021/08/01 10:17:25;;;;;;;1.98;1.20;;;17.20;99.90;;;;;;4989752;23;20059;-96
2021/08/01 10:19:50;;;;;;;2.03;1.00;;;17.20;99.90;;;;;;4979546;28;20046;-95
2021/08/01 10:22:16;;;;;;;1.00;0.90;;;17.20;99.90;;;;;;4980880;28;20031;-96
2021/08/01 10:24:46;;;;;;;3.33;0.95;;;17.30;99.80;;;;;;4999216;28;20015;-96
2021/08/01 10:27:15;;;;;;;3.13;1.35;;;17.20;99.70;;;;;;4980067;28;20022;-96
2021/08/01 10:29:53;;;;;;;2.53;1.65;;;17.20;99.80;;;;;;5286936;23;20621;-95
2021/08/01 10:32:26;;;;;;;2.45;1.40;;;17.20;99.80;;;;;;4948683;29;20553;-96
2021/08/01 10:35:08;;;;;;;1.88;1.30;;;17.10;99.80;;;;;;4966612;28;20460;-96
2021/08/01 10:37:43;;;;;;;5.10;1.42;;;17.20;99.70;;;;;;4964368;29;20058;-96
2021/08/01 10:40:11;;;;;;;2.58;1.52;;;17.20;99.80;;;;;;4964817;29;20535;-96
2021/08/01 10:42:42;;;;;;;3.15;1.70;;;17.40;99.90;;;;;;4961053;28;20115;-95
2021/08/01 10:45:10;;;;;;;4.05;1.65;;;17.50;99.70;;;;;;4963213;28;20019;-95
2021/08/01 10:47:43;;;;;;;2.23;1.50;;;17.50;99.50;;;;;;4945286;29;20098;-95
2021/08/01 10:50:15;;;;;;;3.20;1.55;;;17.60;99.60;;;;;;4966366;28;20035;-95
2021/08/01 10:52:41;;;;;;;3.13;1.85;;;17.70;99.00;;;;;;4970499;29;20102;-94
2021/08/01 10:55:20;;;;;;;2.53;1.70;;;17.60;98.90;;;;;;4959040;28;20023;-94
2021/08/01 10:58:10;;;;;;;3.65;1.73;;;17.50;98.70;;;;;;4961510;29;20396;-96
2021/08/01 11:00:55;;;;;;;7.10;1.90;;;17.70;98.90;;;;;;4974113;29;20047;-96
2021/08/01 11:03:22;;;;;;;2.53;1.50;;;17.70;98.40;;;;;;4976580;28;20032;-96
2021/08/01 11:05:47;;;;;;;4.65;1.58;;;17.60;98.20;;;;;;4971831;29;20059;-96
2021/08/01 11:08:14;;;;;;;4.68;1.73;;;17.80;98.40;;;;;;4967200;29;20035;-96
2021/08/01 11:18:31;;;;;;;5.47;1.80;;;17.60;98.30;;;;;;5013714;28;20058;-95
2021/08/01 11:21:16;;;;;;;3.22;1.52;;;17.70;98.60;;;;;;4994339;28;20046;-95
2021/08/01 11:23:48;;;;;;;4.95;1.50;;;17.80;98.80;;;;;;4978969;23;20051;-96
2021/08/01 11:26:16;;;;;;;5.28;1.65;;;18.00;98.50;;;;;;5386269;23;20055;-95
2021/08/01 11:28:44;;;;;;;2.80;1.35;;;18.10;98.00;;;;;;4988134;28;20070;-96
2021/08/01 11:31:21;;;;;;;5.40;1.85;;;18.10;97.80;;;;;;4980136;28;20026;-95
2021/08/01 11:33:52;;;;;;;3.42;1.60;;;18.10;97.40;;;;;;4959786;28;20051;-95
2021/08/01 11:36:33;;;;;;;3.53;1.80;;;18.00;97.40;;;;;;4959198;28;20026;-96
2021/08/01 11:39:01;;;;;;;2.55;1.98;;;18.00;97.40;;;;;;4979567;28;20033;-96
2021/08/01 11:41:27;;;;;;;2.10;1.30;;;18.10;97.20;;;;;;4981958;28;20069;-95
2021/08/01 11:44:08;;;;;;;2.88;1.60;;;18.10;96.80;;;;;;4962051;28;20031;-96
2021/08/01 11:46:50;;;;;;;2.30;1.45;;;18.10;96.40;;;;;;4977149;28;20464;-96
2021/08/01 11:49:26;;;;;;;2.90;1.40;;;18.10;96.40;;;;;;4960804;28;20019;-96
2021/08/01 11:51:55;;;;;;;1.95;1.40;;;18.10;96.40;;;;;;4977573;28;20034;-96
2021/08/01 11:54:35;;;;;;;2.60;1.40;;;18.10;96.50;;;;;;4980688;28;20039;-94
2021/08/01 11:57:08;;;;;;;3.63;1.30;;;18.10;96.60;;;;;;4974902;28;20026;-94
2021/08/01 11:59:34;;;;;;;3.53;1.27;;;18.10;96.70;;;;;;4942655;29;20042;-96
2021/08/01 12:02:07;;;;;;;3.00;1.42;;;18.10;96.60;;;;;;4979897;28;20159;-95
2021/08/01 12:04:33;;;;;;;5.25;1.50;;;18.10;96.80;;;;;;4975637;28;20023;-96
2021/08/01 12:06:58;;;;;;;3.50;1.67;;;18.00;96.90;;;;;;4963755;28;20045;-95
2021/08/01 12:09:28;;;;;;;4.97;1.60;;;17.90;97.60;;;;;;4945625;28;20026;-94
2021/08/01 12:11:54;;;;;;;1.95;1.75;;;17.80;98.00;;;;;;4972862;28;20034;-96
2021/08/01 12:14:30;;;;;;;2.50;1.70;;;17.80;98.50;;;;;;4982818;28;20050;-96
2021/08/01 12:17:08;;;;;;;1.85;1.60;;;17.80;98.70;;;;;;4961969;28;20247;-96
2021/08/01 12:19:40;;;;;;;2.08;1.48;;;17.70;98.80;;;;;;4942039;29;20035;-94
2021/08/01 12:22:17;;;;;;;2.80;1.38;;;17.70;98.90;;;;;;4958655;29;20028;-95
2021/08/01 12:24:48;;;;;;;2.40;1.80;;;17.60;98.90;;;;;;4963141;28;20115;-95
2021/08/01 12:27:20;;;;;;;4.00;2.00;;;17.70;99.10;;;;;;4940774;29;20058;-94
2021/08/01 12:29:56;;;;;;;2.38;1.80;;;17.70;99.10;;;;;;4958006;29;20038;-95
2021/08/01 12:32:31;;;;;;;1.98;1.65;;;17.70;98.60;;;;;;4965902;28;20019;-96
2021/08/01 12:35:01;;;;;;;1.65;1.55;;;17.70;98.40;;;;;;4969191;29;20027;-95
2021/08/01 12:37:30;;;;;;;2.08;1.42;;;17.80;98.30;;;;;;4961658;29;20023;-94
2021/08/01 12:39:56;;;;;;;2.95;1.80;;;17.90;98.40;;;;;;4950380;28;20040;-95
2021/08/01 12:42:25;;;;;;;2.75;1.67;;;18.00;97.80;;;;;;4959668;28;20089;-95
2021/08/01 12:44:58;;;;;;;2.17;1.58;;;18.20;97.60;;;;;;4983602;28;20034;-95
2021/08/01 12:47:26;;;;;;;3.65;1.63;;;18.20;96.90;;;;;;4965949;28;20075;-96
2021/08/01 12:49:54;;;;;;;2.35;1.70;;;18.20;96.60;;;;;;4970860;28;20034;-96
2021/08/01 12:52:25;;;;;;;2.38;1.38;;;18.20;96.50;;;;;;4965384;28;20100;-96
2021/08/01 12:54:57;;;;;;;2.65;1.30;;;18.20;96.70;;;;;;4970427;28;20046;-96
2021/08/01 12:57:23;;;;;;;2.22;1.27;;;18.20;96.60;;;;;;4985665;28;20037;-95
2021/08/01 13:00:14;;;;;;;6.75;1.60;;;18.20;96.20;;;;;;4969843;28;20023;-94
2021/08/01 13:02:42;;;;;;;4.65;1.52;;;18.10;95.70;;;;;;4974166;28;20456;-96
2021/08/01 13:05:21;;;;;;;3.08;1.55;;;18.20;95.80;;;;;;4973301;28;20038;-96
2021/08/01 13:07:47;;;;;;;2.22;1.60;;;18.20;95.70;;;;;;4999502;28;20031;-93
2021/08/01 13:10:15;;;;;;;1.40;1.30;;;18.30;95.60;;;;;;4978688;28;20065;-93
2021/08/01 13:13:09;;;;;;;2.25;1.67;;;18.60;95.30;;;;;;4981904;28;20041;-95
2021/08/01 13:15:37;;;;;;;2.00;1.50;;;18.70;94.50;;;;;;4964854;28;20122;-95
2021/08/01 13:18:04;;;;;;;3.55;1.70;;;18.90;94.20;;;;;;4967764;28;20090;-96
2021/08/01 13:20:34;;;;;;;7.88;1.65;;;19.00;93.90;;;;;;4964837;28;20381;-95
2021/08/01 13:23:02;;;;;;;5.32;1.80;;;19.20;93.80;;;;;;4961838;28;20042;-93
2021/08/01 13:25:36;;;;;;;5.03;1.88;;;19.30;93.70;;;;;;4962695;28;20061;-95
2021/08/01 13:28:03;;;;;;;4.30;1.80;;;19.50;93.00;;;;;;4956861;29;20043;-95
2021/08/01 13:30:30;;;;;;;3.72;1.73;;;19.50;92.40;;;;;;4958414;28;20469;-96
2021/08/01 13:32:55;;;;;;;3.17;1.92;;;19.50;92.00;;;;;;4959751;28;20031;-96
2021/08/01 13:35:27;;;;;;;4.35;1.70;;;19.60;91.70;;;;;;4957432;29;20030;-96
2021/08/01 13:38:05;;;;;;;2.97;1.70;;;19.80;91.20;;;;;;4964620;28;20030;-96
2021/08/01 13:40:37;;;;;;;5.63;1.83;;;20.00;90.80;;;;;;4961451;28;20039;-96
2021/08/01 13:43:20;;;;;;;2.30;1.60;;;20.00;90.30;;;;;;4956895;28;20064;-94
2021/08/01 13:45:47;;;;;;;4.22;1.70;;;20.10;89.40;;;;;;4957440;28;20124;-95
2021/08/01 13:48:13;;;;;;;2.50;1.60;;;20.10;89.60;;;;;;4957301;28;20086;-96
2021/08/01 13:50:39;;;;;;;3.65;2.00;;;20.10;89.50;;;;;;4959774;28;20385;-96
2021/08/01 13:53:04;;;;;;;3.67;2.28;;;20.00;89.50;;;;;;4964000;28;20397;-95
2021/08/01 13:55:30;;;;;;;2.33;1.40;;;20.00;89.10;;;;;;4959093;28;20027;-96
2021/08/01 13:58:09;;;;;;;4.95;2.05;;;19.90;89.30;;;;;;4966460;28;20023;-96
2021/08/01 14:00:38;;;;;;;4.15;1.90;;;19.80;89.80;;;;;;4965481;28;20039;-96
2021/08/01 14:03:05;;;;;;;3.13;1.90;;;19.50;89.90;;;;;;4960393;28;20070;-95
2021/08/01 14:05:34;;;;;;;3.50;1.80;;;19.30;90.00;;;;;;4964622;28;20027;-95
2021/08/01 14:08:13;;;;;;;3.45;1.92;;;19.10;90.50;;;;;;4971016;29;20035;-96
2021/08/01 14:10:40;;;;;;;2.22;1.80;;;18.90;90.80;;;;;;4965283;29;20231;-94
2021/08/01 14:13:06;;;;;;;4.85;2.00;;;18.80;91.20;;;;;;4964961;28;20033;-96
2021/08/01 14:15:32;;;;;;;4.80;1.70;;;18.70;91.60;;;;;;4970534;28;20099;-95
2021/08/01 14:17:59;;;;;;;3.20;1.80;;;18.70;91.90;;;;;;5009988;23;20022;-96
2021/08/01 14:20:25;;;;;;;3.60;1.52;;;18.70;92.00;;;;;;5000194;28;20074;-96
2021/08/01 14:22:50;;;;;;;2.47;1.70;;;18.70;91.90;;;;;;5131095;23;20066;-96
2021/08/01 14:25:16;;;;;;;3.83;1.40;;;18.80;92.00;;;;;;5145943;23;20039;-95
2021/08/01 14:33:20;;;;;;;4.10;1.30;;;19.20;90.60;;;;;;5038945;23;20051;-94
2021/08/01 14:35:46;;;;;;;7.05;1.58;;;19.20;90.20;;;;;;5006939;23;20035;-95
2021/08/01 14:38:13;;;;;;;4.88;1.30;;;19.30;89.90;;;;;;4998934;28;20062;-96
2021/08/01 14:40:40;;;;;;;3.58;1.35;;;19.30;89.60;;;;;;4973747;28;20038;-96
2021/08/01 14:43:08;;;;;;;3.85;1.70;;;19.40;88.50;;;;;;4995485;28;20022;-96
2021/08/01 14:50:51;;;;;;;3.75;1.52;;;19.30;87.70;;;;;;4972003;28;20053;-96
2021/08/01 14:53:19;;;;;;;4.68;1.45;;;19.30;87.80;;;;;;4968118;28;20027;-96
2021/08/01 14:55:58;;;;;;;6.53;1.60;;;19.30;87.90;;;;;;5095470;23;20027;-96
2021/08/01 15:01:30;;;;;;;2.65;1.45;;;19.20;87.90;;;;;;4997357;23;20042;-96
2021/08/01 15:04:46;;;;;;;3.03;1.30;;;19.20;86.90;;;;;;4990697;28;20042;-96
2021/08/01 15:07:29;;;;;;;4.82;1.35;;;19.10;86.70;;;;;;4910193;29;20046;-96
2021/08/01 15:10:09;;;;;;;3.08;1.33;;;19.10;86.40;;;;;;4934563;29;20059;-96
2021/08/01 15:12:47;;;;;;;4.22;1.33;;;19.10;86.00;;;;;;5078813;23;20062;-96
2021/08/01 15:15:14;;;;;;;2.15;1.33;;;19.20;86.00;;;;;;5080213;23;20045;-95
2021/08/01 15:17:41;;;;;;;3.90;1.33;;;19.30;85.70;;;;;;4976643;28;20035;-96
2021/08/01 15:20:13;;;;;;;4.25;1.52;;;19.40;85.40;;;;;;4975443;28;20039;-96
2021/08/01 15:22:45;;;;;;;3.65;1.83;;;19.50;85.00;;;;;;4975224;28;20007;-96
2021/08/01 15:25:11;;;;;;;1.67;1.20;;;19.60;83.80;;;;;;4977521;28;20030;-96
2021/08/01 15:27:41;;;;;;;2.42;1.48;;;19.60;83.00;;;;;;4973714;29;20023;-96
2021/08/01 15:30:09;;;;;;;3.90;1.38;;;19.70;82.70;;;;;;4953316;29;20054;-95
2021/08/01 15:40:18;;;;;;;2.67;1.48;;;19.60;82.00;;;;;;5054589;23;20055;-96
2021/08/01 15:42:47;;;;;;;5.63;1.40;;;19.60;82.40;;;;;;5022254;23;20058;-96
2021/08/01 15:45:15;;;;;;;2.13;1.40;;;19.50;82.60;;;;;;4958148;28;20030;-96
2021/08/01 15:47:42;;;;;;;2.38;1.48;;;19.50;82.90;;;;;;4976052;28;20022;-96
2021/08/01 15:50:12;;;;;;;2.72;1.40;;;19.50;83.10;;;;;;5019027;23;20059;-96
2021/08/01 15:52:56;;;;;;;3.30;1.50;;;19.50;83.10;;;;;;4932166;29;20028;-96
2021/08/01 15:55:30;;;;;;;3.67;1.52;;;19.40;83.30;;;;;;4962395;29;20035;-96
2021/08/01 15:58:04;;;;;;;5.80;2.03;;;19.30;83.50;;;;;;4949206;29;20008;-96
2021/08/01 16:00:36;;;;;;;1.85;1.23;;;19.30;83.70;;;;;;4947789;29;20043;-96
2021/08/01 16:03:20;;;;;;;6.65;1.60;;;19.30;83.80;;;;;;4944678;29;20031;-96
2021/08/01 16:05:47;;;;;;;3.97;1.48;;;19.20;83.80;;;;;;4939616;29;20039;-96
2021/08/01 16:08:27;;;;;;;4.78;1.40;;;19.20;83.80;;;;;;4943470;29;20114;-94
2021/08/01 16:11:00;;;;;;;2.95;1.50;;;19.20;84.00;;;;;;4938469;29;20027;-95
2021/08/01 16:13:34;;;;;;;5.25;1.60;;;19.20;84.20;;;;;;4940628;29;20537;-96
2021/08/01 16:16:02;;;;;;;8.65;1.77;;;19.20;83.80;;;;;;4943512;29;20030;-96
2021/08/01 16:18:34;;;;;;;7.10;2.22;;;19.20;83.70;;;;;;4944419;29;20027;-95
2021/08/01 16:21:02;;;;;;;2.63;1.20;;;19.20;83.70;;;;;;4944403;29;20441;-95
2021/08/01 16:23:28;;;;;;;6.15;1.73;;;19.30;83.80;;;;;;4942142;29;20118;-95
2021/08/01 16:25:57;;;;;;;3.45;1.83;;;19.40;83.60;;;;;;4943145;29;20028;-95
2021/08/01 16:28:24;;;;;;;3.65;1.60;;;19.50;83.30;;;;;;4941924;29;20027;-95
2021/08/01 16:30:52;;;;;;;4.93;1.90;;;19.50;83.20;;;;;;4943214;29;20035;-94
2021/08/01 16:33:18;;;;;;;4.75;1.90;;;19.60;83.40;;;;;;4942902;29;20035;-94
2021/08/01 16:35:44;;;;;;;4.97;2.20;;;19.70;83.40;;;;;;4942112;29;20035;-94
2021/08/01 16:38:10;;;;;;;3.15;1.80;;;19.80;82.90;;;;;;4942263;29;20031;-95
2021/08/01 16:41:08;;;;;;;7.60;1.73;;;19.80;82.70;;;;;;4942714;29;20109;-96
2021/08/01 16:43:43;;;;;;;2.75;1.92;;;19.70;82.70;;;;;;4925887;29;20489;-96
2021/08/01 16:46:15;;;;;;;5.22;1.77;;;19.70;83.40;;;;;;4943927;29;20035;-96
2021/08/01 16:48:48;;;;;;;5.93;2.50;;;19.70;83.60;;;;;;4944438;29;20043;-96
2021/08/01 16:51:41;;;;;;;4.03;2.05;;;19.70;83.90;;;;;;4950568;29;20062;-96
2021/08/01 16:54:17;;;;;;;2.85;1.80;;;19.60;83.20;;;;;;4942255;29;20030;-96
2021/08/01 16:56:47;;;;;;;4.35;1.77;;;19.40;83.50;;;;;;4944898;29;20035;-96
2021/08/01 16:59:20;;;;;;;6.03;2.53;;;19.40;84.00;;;;;;4949393;29;20031;-96
2021/08/01 17:02:07;;;;;;;4.75;1.77;;;19.40;84.50;;;;;;4943693;29;20011;-96
2021/08/01 17:04:41;;;;;;;6.72;2.25;;;19.40;84.40;;;;;;4945207;29;20465;-96
2021/08/01 17:07:30;;;;;;;3.08;1.67;;;19.30;84.40;;;;;;4960445;29;20042;-96
2021/08/01 17:09:57;;;;;;;3.95;1.80;;;19.30;85.40;;;;;;4934050;29;20028;-96